sensor_id;sensor_type;location;lat;lon;timestamp;temperature;humidity
20815;DHT22;10568;48.176;16.316;2023-05-10T00:00:08;9.40;99.90
20815;DHT22;10568;48.176;16.316;2023-05-10T00:02:34;9.40;99.90
20815;DHT22;10568;48.176;16.316;2023-05-10T00:05:01;9.30;99.90
20815;DHT22;10568;48.176;16.316;2023-05-10T00:07:27;9.30;99.90
20815;DHT22;10568;48.176;16.316;2023-05-10T00:09:52;9.20;99.90
20815;DHT22;10568;48.176;16.316;2023-05-10T00:12:18;9.20;99.90
20815;DHT22;10568;48.176;16.316;2023-05-10T00:14:44;9.10;99.90
20815;DHT22;10568;48.176;16.316;2023-05-10T00:17:10;9.10;99.90
20815;DHT22;10568;48.176;16.316;2023-05-10T00:19:36;9.00;99.90
20815;DHT22;10568;48.176;16.316;2023-05-10T00:22:02;8.90;99.90
20815;DHT22;10568;48.176;16.316;2023-05-10T00:24:28;8.90;99.90
20815;DHT22;10568;48.176;16.316;2023-05-10T00:26:54;8.80;99.90
20815;DHT22;10568;48.176;16.316;2023-05-10T00:29:19;8.70;99.90
20815;DHT22;10568;48.176;16.316;2023-05-10T00:31:45;8.70;99.90
20815;DHT22;10568;48.176;16.316;2023-05-10T00:34:11;8.70;99.90
20815;DHT22;10568;48.176;16.316;2023-05-10T00:36:37;8.70;99.90
20815;DHT22;10568;48.176;16.316;2023-05-10T00:39:03;8.60;99.90
20815;DHT22;10568;48.176;16.316;2023-05-10T00:41:29;8.60;99.90
20815;DHT22;10568;48.176;16.316;2023-05-10T00:43:57;8.60;99.90
20815;DHT22;10568;48.176;16.316;2023-05-10T00:46:23;8.50;99.90
20815;DHT22;10568;48.176;16.316;2023-05-10T00:48:50;8.60;99.90
20815;DHT22;10568;48.176;16.316;2023-05-10T00:51:16;8.60;99.90
20815;DHT22;10568;48.176;16.316;2023-05-10T00:53:42;8.60;99.90
20815;DHT22;10568;48.176;16.316;2023-05-10T00:56:15;8.60;99.90
20815;DHT22;10568;48.176;16.316;2023-05-10T00:58:41;8.60;99.90
20815;DHT22;10568;48.176;16.316;2023-05-10T01:01:08;8.70;99.90
20815;DHT22;10568;48.176;16.316;2023-05-10T01:03:35;8.70;99.90
20815;DHT22;10568;48.176;16.316;2023-05-10T01:06:01;8.70;99.90
20815;DHT22;10568;48.176;16.316;2023-05-10T01:08:27;8.70;99.90
20815;DHT22;10568;48.176;16.316;2023-05-10T01:10:54;8.70;99.90
20815;DHT22;10568;48.176;16.316;2023-05-10T01:13:47;8.70;99.90
20815;DHT22;10568;48.176;16.316;2023-05-10T01:16:16;8.70;99.90
20815;DHT22;10568;48.176;16.316;2023-05-10T01:18:42;8.70;99.90
20815;DHT22;10568;48.176;16.316;2023-05-10T01:21:33;8.70;99.90
20815;DHT22;10568;48.176;16.316;2023-05-10T01:35:26;8.70;99.90
20815;DHT22;10568;48.176;16.316;2023-05-10T01:40:37;8.70;99.90
20815;DHT22;10568;48.176;16.316;2023-05-10T01:43:13;8.80;99.90
20815;DHT22;10568;48.176;16.316;2023-05-10T01:45:49;8.70;99.90
20815;DHT22;10568;48.176;16.316;2023-05-10T01:48:17;8.70;99.90
20815;DHT22;10568;48.176;16.316;2023-05-10T01:50:45;8.70;99.90
20815;DHT22;10568;48.176;16.316;2023-05-10T01:53:13;8.70;99.90
20815;DHT22;10568;48.176;16.316;2023-05-10T01:55:47;8.70;99.90
20815;DHT22;10568;48.176;16.316;2023-05-10T01:58:20;8.70;99.90
20815;DHT22;10568;48.176;16.316;2023-05-10T02:00:47;8.70;99.90
20815;DHT22;10568;48.176;16.316;2023-05-10T02:03:16;8.60;99.90
20815;DHT22;10568;48.176;16.316;2023-05-10T02:05:44;8.60;99.90
20815;DHT22;10568;48.176;16.316;2023-05-10T02:08:11;8.60;99.90
20815;DHT22;10568;48.176;16.316;2023-05-10T02:10:39;8.50;99.90
20815;DHT22;10568;48.176;16.316;2023-05-10T02:13:07;8.50;99.90
20815;DHT22;10568;48.176;16.316;2023-05-10T02:15:35;8.50;99.90
20815;DHT22;10568;48.176;16.316;2023-05-10T02:18:03;8.50;99.90
20815;DHT22;10568;48.176;16.316;2023-05-10T02:20:31;8.50;99.90
20815;DHT22;10568;48.176;16.316;2023-05-10T02:22:58;8.50;99.90
20815;DHT22;10568;48.176;16.316;2023-05-10T02:25:25;8.60;99.90
20815;DHT22;10568;48.176;16.316;2023-05-10T02:27:56;8.60;99.90
20815;DHT22;10568;48.176;16.316;2023-05-10T02:30:22;8.60;99.90
20815;DHT22;10568;48.176;16.316;2023-05-10T02:32:50;8.60;99.90
20815;DHT22;10568;48.176;16.316;2023-05-10T02:35:17;8.60;99.90
20815;DHT22;10568;48.176;16.316;2023-05-10T02:37:44;8.50;99.90
20815;DHT22;10568;48.176;16.316;2023-05-10T02:40:11;8.50;99.90
20815;DHT22;10568;48.176;16.316;2023-05-10T02:42:38;8.50;99.90
20815;DHT22;10568;48.176;16.316;2023-05-10T02:45:13;8.50;99.90
20815;DHT22;10568;48.176;16.316;2023-05-10T02:47:39;8.50;99.90
20815;DHT22;10568;48.176;16.316;2023-05-10T02:50:06;8.40;99.90
20815;DHT22;10568;48.176;16.316;2023-05-10T02:52:47;8.40;99.90
20815;DHT22;10568;48.176;16.316;2023-05-10T02:55:16;8.40;99.90
20815;DHT22;10568;48.176;16.316;2023-05-10T02:58:04;8.40;99.90
20815;DHT22;10568;48.176;16.316;2023-05-10T03:00:31;8.40;99.90
20815;DHT22;10568;48.176;16.316;2023-05-10T03:02:57;8.30;99.90
20815;DHT22;10568;48.176;16.316;2023-05-10T03:05:23;8.30;99.90
20815;DHT22;10568;48.176;16.316;2023-05-10T03:07:49;8.30;99.90
20815;DHT22;10568;48.176;16.316;2023-05-10T03:10:15;8.30;99.90
20815;DHT22;10568;48.176;16.316;2023-05-10T03:12:59;8.20;99.90
20815;DHT22;10568;48.176;16.316;2023-05-10T03:20:41;8.30;99.90
20815;DHT22;10568;48.176;16.316;2023-05-10T03:23:13;8.30;99.90
20815;DHT22;10568;48.176;16.316;2023-05-10T03:25:48;8.30;99.90
20815;DHT22;10568;48.176;16.316;2023-05-10T03:28:15;8.30;99.90
20815;DHT22;10568;48.176;16.316;2023-05-10T03:30:43;8.20;99.90
20815;DHT22;10568;48.176;16.316;2023-05-10T03:33:09;8.30;99.90
20815;DHT22;10568;48.176;16.316;2023-05-10T03:35:35;8.20;99.90
20815;DHT22;10568;48.176;16.316;2023-05-10T03:38:01;8.30;99.90
20815;DHT22;10568;48.176;16.316;2023-05-10T03:40:27;8.20;99.90
20815;DHT22;10568;48.176;16.316;2023-05-10T03:42:58;8.20;99.90
20815;DHT22;10568;48.176;16.316;2023-05-10T03:45:24;8.20;99.90
20815;DHT22;10568;48.176;16.316;2023-05-10T03:47:50;8.10;99.90
20815;DHT22;10568;48.176;16.316;2023-05-10T03:50:15;8.10;99.90
20815;DHT22;10568;48.176;16.316;2023-05-10T03:52:41;8.10;99.90
20815;DHT22;10568;48.176;16.316;2023-05-10T03:55:07;8.00;99.90
20815;DHT22;10568;48.176;16.316;2023-05-10T03:57:33;8.00;99.90
20815;DHT22;10568;48.176;16.316;2023-05-10T03:59:59;8.00;99.90
20815;DHT22;10568;48.176;16.316;2023-05-10T04:02:25;8.00;99.90
20815;DHT22;10568;48.176;16.316;2023-05-10T04:04:51;8.00;99.90
20815;DHT22;10568;48.176;16.316;2023-05-10T04:07:17;8.00;99.90
20815;DHT22;10568;48.176;16.316;2023-05-10T04:09:43;8.00;99.90
20815;DHT22;10568;48.176;16.316;2023-05-10T04:12:09;8.00;99.90
20815;DHT22;10568;48.176;16.316;2023-05-10T04:14:35;8.00;99.90
20815;DHT22;10568;48.176;16.316;2023-05-10T04:17:01;8.10;99.90
20815;DHT22;10568;48.176;16.316;2023-05-10T04:19:33;8.10;99.90
20815;DHT22;10568;48.176;16.316;2023-05-10T04:21:59;8.20;99.90
20815;DHT22;10568;48.176;16.316;2023-05-10T04:24:25;8.20;99.90
20815;DHT22;10568;48.176;16.316;2023-05-10T04:26:51;8.30;99.90
20815;DHT22;10568;48.176;16.316;2023-05-10T04:29:17;8.30;99.90
20815;DHT22;10568;48.176;16.316;2023-05-10T04:31:42;8.40;99.90
20815;DHT22;10568;48.176;16.316;2023-05-10T04:34:08;8.40;99.90
20815;DHT22;10568;48.176;16.316;2023-05-10T04:36:34;8.50;99.90
20815;DHT22;10568;48.176;16.316;2023-05-10T04:39:02;8.50;99.90
20815;DHT22;10568;48.176;16.316;2023-05-10T04:41:31;8.60;99.90
20815;DHT22;10568;48.176;16.316;2023-05-10T04:43:56;8.60;99.90
20815;DHT22;10568;48.176;16.316;2023-05-10T04:46:22;8.60;99.90
20815;DHT22;10568;48.176;16.316;2023-05-10T04:48:48;8.70;99.90
20815;DHT22;10568;48.176;16.316;2023-05-10T04:51:14;8.70;99.90
20815;DHT22;10568;48.176;16.316;2023-05-10T04:53:40;8.80;99.90
20815;DHT22;10568;48.176;16.316;2023-05-10T04:56:06;8.90;99.90
20815;DHT22;10568;48.176;16.316;2023-05-10T04:58:32;8.90;99.90
20815;DHT22;10568;48.176;16.316;2023-05-10T05:01:07;9.00;99.90
20815;DHT22;10568;48.176;16.316;2023-05-10T05:03:34;9.10;99.90
20815;DHT22;10568;48.176;16.316;2023-05-10T05:05:59;9.20;99.90
20815;DHT22;10568;48.176;16.316;2023-05-10T05:08:25;9.30;99.90
20815;DHT22;10568;48.176;16.316;2023-05-10T05:10:51;9.70;99.90
20815;DHT22;10568;48.176;16.316;2023-05-10T05:13:17;10.00;99.90
20815;DHT22;10568;48.176;16.316;2023-05-10T05:15:42;10.20;99.90
20815;DHT22;10568;48.176;16.316;2023-05-10T05:18:08;11.40;99.90
20815;DHT22;10568;48.176;16.316;2023-05-10T05:20:34;12.60;99.90
20815;DHT22;10568;48.176;16.316;2023-05-10T05:23:01;12.40;99.90
20815;DHT22;10568;48.176;16.316;2023-05-10T05:25:27;12.60;99.90
20815;DHT22;10568;48.176;16.316;2023-05-10T05:27:53;12.90;99.90
20815;DHT22;10568;48.176;16.316;2023-05-10T05:30:19;12.70;99.90
20815;DHT22;10568;48.176;16.316;2023-05-10T05:32:45;12.40;99.90
20815;DHT22;10568;48.176;16.316;2023-05-10T05:35:12;12.20;99.90
20815;DHT22;10568;48.176;16.316;2023-05-10T05:37:41;12.00;99.90
20815;DHT22;10568;48.176;16.316;2023-05-10T05:40:17;11.90;99.90
20815;DHT22;10568;48.176;16.316;2023-05-10T05:42:54;11.90;99.90
20815;DHT22;10568;48.176;16.316;2023-05-10T05:45:26;11.80;99.90
20815;DHT22;10568;48.176;16.316;2023-05-10T05:47:58;11.80;99.90
20815;DHT22;10568;48.176;16.316;2023-05-10T05:50:29;12.00;99.90
20815;DHT22;10568;48.176;16.316;2023-05-10T05:52:59;12.10;99.90
20815;DHT22;10568;48.176;16.316;2023-05-10T05:55:30;12.30;99.90
20815;DHT22;10568;48.176;16.316;2023-05-10T05:58:00;12.50;99.90
20815;DHT22;10568;48.176;16.316;2023-05-10T06:00:26;12.70;99.90
20815;DHT22;10568;48.176;16.316;2023-05-10T06:02:52;13.20;99.90
20815;DHT22;10568;48.176;16.316;2023-05-10T06:05:18;13.90;99.90
20815;DHT22;10568;48.176;16.316;2023-05-10T06:07:44;14.40;99.90
20815;DHT22;10568;48.176;16.316;2023-05-10T06:10:10;14.90;99.90
20815;DHT22;10568;48.176;16.316;2023-05-10T06:12:35;15.30;99.90
20815;DHT22;10568;48.176;16.316;2023-05-10T06:15:02;15.40;99.90
20815;DHT22;10568;48.176;16.316;2023-05-10T06:17:28;15.70;99.90
20815;DHT22;10568;48.176;16.316;2023-05-10T06:19:54;16.10;99.90
20815;DHT22;10568;48.176;16.316;2023-05-10T06:22:20;16.40;99.90
20815;DHT22;10568;48.176;16.316;2023-05-10T06:24:48;17.10;99.90
20815;DHT22;10568;48.176;16.316;2023-05-10T06:27:14;17.90;99.90
20815;DHT22;10568;48.176;16.316;2023-05-10T06:29:40;18.40;99.90
20815;DHT22;10568;48.176;16.316;2023-05-10T06:32:06;19.00;99.90
20815;DHT22;10568;48.176;16.316;2023-05-10T06:34:32;19.40;99.90
20815;DHT22;10568;48.176;16.316;2023-05-10T06:36:57;19.80;99.90
20815;DHT22;10568;48.176;16.316;2023-05-10T06:39:23;19.90;99.90
20815;DHT22;10568;48.176;16.316;2023-05-10T06:41:49;20.10;99.90
20815;DHT22;10568;48.176;16.316;2023-05-10T06:44:15;20.20;99.90
20815;DHT22;10568;48.176;16.316;2023-05-10T06:46:40;20.40;99.90
20815;DHT22;10568;48.176;16.316;2023-05-10T06:49:07;20.60;99.90
20815;DHT22;10568;48.176;16.316;2023-05-10T06:51:33;20.70;99.90
20815;DHT22;10568;48.176;16.316;2023-05-10T06:53:59;20.70;99.90
20815;DHT22;10568;48.176;16.316;2023-05-10T06:56:24;20.50;99.90
20815;DHT22;10568;48.176;16.316;2023-05-10T06:58:50;20.70;99.90
20815;DHT22;10568;48.176;16.316;2023-05-10T07:01:16;20.80;99.90
20815;DHT22;10568;48.176;16.316;2023-05-10T07:03:42;20.80;99.90
20815;DHT22;10568;48.176;16.316;2023-05-10T07:06:07;20.90;99.90
20815;DHT22;10568;48.176;16.316;2023-05-10T07:08:34;20.90;99.90
20815;DHT22;10568;48.176;16.316;2023-05-10T07:11:03;21.00;99.90
20815;DHT22;10568;48.176;16.316;2023-05-10T07:13:31;20.80;99.00
20815;DHT22;10568;48.176;16.316;2023-05-10T07:15:57;21.00;99.90
20815;DHT22;10568;48.176;16.316;2023-05-10T07:18:24;20.90;99.90
20815;DHT22;10568;48.176;16.316;2023-05-10T07:20:50;21.10;99.90
20815;DHT22;10568;48.176;16.316;2023-05-10T07:23:15;21.20;99.90
20815;DHT22;10568;48.176;16.316;2023-05-10T07:25:48;21.30;98.00
20815;DHT22;10568;48.176;16.316;2023-05-10T07:28:15;21.20;99.90
20815;DHT22;10568;48.176;16.316;2023-05-10T07:30:41;21.10;99.90
20815;DHT22;10568;48.176;16.316;2023-05-10T07:33:09;21.30;99.90
20815;DHT22;10568;48.176;16.316;2023-05-10T07:35:35;21.20;99.90
20815;DHT22;10568;48.176;16.316;2023-05-10T07:38:01;21.30;99.90
20815;DHT22;10568;48.176;16.316;2023-05-10T07:40:28;21.00;99.90
20815;DHT22;10568;48.176;16.316;2023-05-10T07:42:54;21.00;99.80
20815;DHT22;10568;48.176;16.316;2023-05-10T07:45:20;21.10;99.90
20815;DHT22;10568;48.176;16.316;2023-05-10T07:47:46;21.20;99.90
20815;DHT22;10568;48.176;16.316;2023-05-10T07:50:12;21.20;99.90
20815;DHT22;10568;48.176;16.316;2023-05-10T07:52:38;21.10;99.70
20815;DHT22;10568;48.176;16.316;2023-05-10T07:55:04;21.30;99.90
20815;DHT22;10568;48.176;16.316;2023-05-10T07:57:30;21.30;99.90
20815;DHT22;10568;48.176;16.316;2023-05-10T07:59:56;21.00;99.90
20815;DHT22;10568;48.176;16.316;2023-05-10T08:02:22;21.50;99.90
20815;DHT22;10568;48.176;16.316;2023-05-10T08:04:48;21.60;99.60
20815;DHT22;10568;48.176;16.316;2023-05-10T08:07:13;21.10;98.70
20815;DHT22;10568;48.176;16.316;2023-05-10T08:09:39;21.70;99.90
20815;DHT22;10568;48.176;16.316;2023-05-10T08:12:05;21.60;99.90
20815;DHT22;10568;48.176;16.316;2023-05-10T08:14:31;21.80;99.90
20815;DHT22;10568;48.176;16.316;2023-05-10T08:16:57;21.70;99.90
20815;DHT22;10568;48.176;16.316;2023-05-10T08:19:23;21.90;99.90
20815;DHT22;10568;48.176;16.316;2023-05-10T08:21:50;22.10;99.90
20815;DHT22;10568;48.176;16.316;2023-05-10T08:24:16;22.20;99.90
20815;DHT22;10568;48.176;16.316;2023-05-10T08:26:42;22.20;99.90
20815;DHT22;10568;48.176;16.316;2023-05-10T08:29:08;22.50;97.70
20815;DHT22;10568;48.176;16.316;2023-05-10T08:31:34;22.40;99.90
20815;DHT22;10568;48.176;16.316;2023-05-10T08:34:00;22.70;98.50
20815;DHT22;10568;48.176;16.316;2023-05-10T08:36:26;22.90;99.90
20815;DHT22;10568;48.176;16.316;2023-05-10T08:38:52;22.80;99.90
20815;DHT22;10568;48.176;16.316;2023-05-10T08:41:20;22.90;99.90
20815;DHT22;10568;48.176;16.316;2023-05-10T08:43:47;22.70;95.90
20815;DHT22;10568;48.176;16.316;2023-05-10T08:46:17;22.80;99.10
20815;DHT22;10568;48.176;16.316;2023-05-10T08:48:45;22.90;99.90
20815;DHT22;10568;48.176;16.316;2023-05-10T08:51:17;22.20;98.20
20815;DHT22;10568;48.176;16.316;2023-05-10T08:53:44;22.50;99.90
20815;DHT22;10568;48.176;16.316;2023-05-10T08:56:10;22.30;97.80
20815;DHT22;10568;48.176;16.316;2023-05-10T08:58:37;22.10;99.90
20815;DHT22;10568;48.176;16.316;2023-05-10T09:01:03;22.30;97.30
20815;DHT22;10568;48.176;16.316;2023-05-10T09:03:30;22.20;98.90
20815;DHT22;10568;48.176;16.316;2023-05-10T09:05:56;21.80;98.30
20815;DHT22;10568;48.176;16.316;2023-05-10T09:08:26;21.90;99.90
20815;DHT22;10568;48.176;16.316;2023-05-10T09:10:52;22.10;99.90
20815;DHT22;10568;48.176;16.316;2023-05-10T09:13:19;21.90;99.90
20815;DHT22;10568;48.176;16.316;2023-05-10T09:15:47;22.10;99.90
20815;DHT22;10568;48.176;16.316;2023-05-10T09:18:13;22.30;98.80
20815;DHT22;10568;48.176;16.316;2023-05-10T09:20:42;22.10;99.80
20815;DHT22;10568;48.176;16.316;2023-05-10T09:23:08;22.10;98.10
20815;DHT22;10568;48.176;16.316;2023-05-10T09:25:34;22.70;99.80
20815;DHT22;10568;48.176;16.316;2023-05-10T09:28:01;23.10;99.90
20815;DHT22;10568;48.176;16.316;2023-05-10T09:30:29;23.40;99.90
20815;DHT22;10568;48.176;16.316;2023-05-10T09:32:56;23.40;99.90
20815;DHT22;10568;48.176;16.316;2023-05-10T09:35:24;24.10;99.20
20815;DHT22;10568;48.176;16.316;2023-05-10T09:37:51;24.40;98.10
20815;DHT22;10568;48.176;16.316;2023-05-10T09:40:26;24.60;95.20
20815;DHT22;10568;48.176;16.316;2023-05-10T09:43:08;24.90;94.80
20815;DHT22;10568;48.176;16.316;2023-05-10T09:45:35;24.80;96.00
20815;DHT22;10568;48.176;16.316;2023-05-10T09:48:02;24.60;96.60
20815;DHT22;10568;48.176;16.316;2023-05-10T09:50:29;24.40;95.30
20815;DHT22;10568;48.176;16.316;2023-05-10T09:52:57;24.00;93.20
20815;DHT22;10568;48.176;16.316;2023-05-10T09:55:39;24.00;99.90
20815;DHT22;10568;48.176;16.316;2023-05-10T09:58:06;24.60;95.80
20815;DHT22;10568;48.176;16.316;2023-05-10T10:00:37;24.70;96.70
20815;DHT22;10568;48.176;16.316;2023-05-10T10:03:03;24.30;95.80
20815;DHT22;10568;48.176;16.316;2023-05-10T10:05:35;24.60;94.80
20815;DHT22;10568;48.176;16.316;2023-05-10T10:08:05;24.70;95.80
20815;DHT22;10568;48.176;16.316;2023-05-10T10:10:32;24.90;92.80
20815;DHT22;10568;48.176;16.316;2023-05-10T10:12:58;24.70;94.20
20815;DHT22;10568;48.176;16.316;2023-05-10T10:15:25;24.60;93.00
20815;DHT22;10568;48.176;16.316;2023-05-10T10:17:52;24.70;96.80
20815;DHT22;10568;48.176;16.316;2023-05-10T10:20:19;24.70;94.90
20815;DHT22;10568;48.176;16.316;2023-05-10T10:22:46;24.90;94.90
20815;DHT22;10568;48.176;16.316;2023-05-10T10:25:15;25.10;93.00
20815;DHT22;10568;48.176;16.316;2023-05-10T10:30:34;24.80;95.50
20815;DHT22;10568;48.176;16.316;2023-05-10T10:35:46;24.90;90.70
20815;DHT22;10568;48.176;16.316;2023-05-10T10:38:12;25.00;92.40
20815;DHT22;10568;48.176;16.316;2023-05-10T10:40:39;24.80;92.00
20815;DHT22;10568;48.176;16.316;2023-05-10T10:43:27;24.80;92.30
20815;DHT22;10568;48.176;16.316;2023-05-10T10:48:49;24.70;90.40
20815;DHT22;10568;48.176;16.316;2023-05-10T10:51:15;25.10;94.20
20815;DHT22;10568;48.176;16.316;2023-05-10T10:53:41;24.90;93.90
20815;DHT22;10568;48.176;16.316;2023-05-10T10:56:07;25.50;93.50
20815;DHT22;10568;48.176;16.316;2023-05-10T10:58:35;25.20;89.70
20815;DHT22;10568;48.176;16.316;2023-05-10T11:01:14;25.30;93.30
20815;DHT22;10568;48.176;16.316;2023-05-10T11:03:54;25.30;90.30
20815;DHT22;10568;48.176;16.316;2023-05-10T11:06:35;25.60;92.10
20815;DHT22;10568;48.176;16.316;2023-05-10T11:11:34;25.90;92.40
20815;DHT22;10568;48.176;16.316;2023-05-10T11:14:04;25.10;90.20
20815;DHT22;10568;48.176;16.316;2023-05-10T11:16:43;25.10;91.30
20815;DHT22;10568;48.176;16.316;2023-05-10T11:19:14;25.30;93.10
20815;DHT22;10568;48.176;16.316;2023-05-10T11:24:29;25.10;93.50
20815;DHT22;10568;48.176;16.316;2023-05-10T11:26:55;25.20;90.80
20815;DHT22;10568;48.176;16.316;2023-05-10T11:29:22;24.60;91.10
20815;DHT22;10568;48.176;16.316;2023-05-10T11:31:48;24.40;91.50
20815;DHT22;10568;48.176;16.316;2023-05-10T11:34:28;24.80;96.20
20815;DHT22;10568;48.176;16.316;2023-05-10T11:36:56;24.80;90.20
20815;DHT22;10568;48.176;16.316;2023-05-10T11:39:26;25.00;94.10
20815;DHT22;10568;48.176;16.316;2023-05-10T11:41:53;24.70;91.00
20815;DHT22;10568;48.176;16.316;2023-05-10T11:44:18;24.60;91.40
20815;DHT22;10568;48.176;16.316;2023-05-10T11:46:44;24.60;91.00
20815;DHT22;10568;48.176;16.316;2023-05-10T11:49:10;24.70;90.10
20815;DHT22;10568;48.176;16.316;2023-05-10T11:51:36;24.90;92.50
20815;DHT22;10568;48.176;16.316;2023-05-10T11:54:06;25.10;89.90
20815;DHT22;10568;48.176;16.316;2023-05-10T11:56:39;24.90;92.70
20815;DHT22;10568;48.176;16.316;2023-05-10T11:59:05;25.20;89.10
20815;DHT22;10568;48.176;16.316;2023-05-10T12:01:31;24.80;92.50
20815;DHT22;10568;48.176;16.316;2023-05-10T12:03:57;24.40;91.00
20815;DHT22;10568;48.176;16.316;2023-05-10T12:06:32;24.50;93.10
20815;DHT22;10568;48.176;16.316;2023-05-10T12:09:06;24.80;89.80
20815;DHT22;10568;48.176;16.316;2023-05-10T12:11:36;24.80;90.60
20815;DHT22;10568;48.176;16.316;2023-05-10T12:14:04;24.80;91.20
20815;DHT22;10568;48.176;16.316;2023-05-10T12:16:30;24.40;87.90
20815;DHT22;10568;48.176;16.316;2023-05-10T12:18:58;24.30;88.30
20815;DHT22;10568;48.176;16.316;2023-05-10T12:21:24;24.50;87.70
20815;DHT22;10568;48.176;16.316;2023-05-10T12:23:52;24.40;90.60
20815;DHT22;10568;48.176;16.316;2023-05-10T12:26:22;24.60;88.10
20815;DHT22;10568;48.176;16.316;2023-05-10T12:28:48;24.00;90.30
20815;DHT22;10568;48.176;16.316;2023-05-10T12:31:14;23.60;88.00
20815;DHT22;10568;48.176;16.316;2023-05-10T12:33:42;23.10;91.80
20815;DHT22;10568;48.176;16.316;2023-05-10T12:36:23;23.20;90.90
20815;DHT22;10568;48.176;16.316;2023-05-10T12:38:49;23.20;89.30
20815;DHT22;10568;48.176;16.316;2023-05-10T12:41:17;23.10;90.50
20815;DHT22;10568;48.176;16.316;2023-05-10T12:43:44;23.30;91.00
20815;DHT22;10568;48.176;16.316;2023-05-10T12:46:12;23.40;87.30
20815;DHT22;10568;48.176;16.316;2023-05-10T12:48:39;23.30;89.70
20815;DHT22;10568;48.176;16.316;2023-05-10T12:51:06;22.80;90.50
20815;DHT22;10568;48.176;16.316;2023-05-10T12:53:38;22.50;91.60
20815;DHT22;10568;48.176;16.316;2023-05-10T12:56:04;22.70;90.90
20815;DHT22;10568;48.176;16.316;2023-05-10T12:58:30;23.10;94.30
20815;DHT22;10568;48.176;16.316;2023-05-10T13:00:58;23.20;90.70
20815;DHT22;10568;48.176;16.316;2023-05-10T13:03:24;23.50;92.90
20815;DHT22;10568;48.176;16.316;2023-05-10T13:05:50;23.70;93.50
20815;DHT22;10568;48.176;16.316;2023-05-10T13:08:15;24.00;90.40
20815;DHT22;10568;48.176;16.316;2023-05-10T13:10:41;23.90;91.30
20815;DHT22;10568;48.176;16.316;2023-05-10T13:13:07;23.20;86.80
20815;DHT22;10568;48.176;16.316;2023-05-10T13:15:34;23.80;90.30
20815;DHT22;10568;48.176;16.316;2023-05-10T13:17:59;23.70;88.40
20815;DHT22;10568;48.176;16.316;2023-05-10T13:20:26;23.90;91.40
20815;DHT22;10568;48.176;16.316;2023-05-10T13:22:52;24.00;91.30
20815;DHT22;10568;48.176;16.316;2023-05-10T13:25:18;23.60;88.70
20815;DHT22;10568;48.176;16.316;2023-05-10T13:27:44;23.20;88.40
20815;DHT22;10568;48.176;16.316;2023-05-10T13:30:10;22.80;87.90
20815;DHT22;10568;48.176;16.316;2023-05-10T13:32:37;23.30;89.60
20815;DHT22;10568;48.176;16.316;2023-05-10T13:35:03;23.50;88.70
20815;DHT22;10568;48.176;16.316;2023-05-10T13:37:30;23.80;89.20
20815;DHT22;10568;48.176;16.316;2023-05-10T13:39:57;24.20;90.40
20815;DHT22;10568;48.176;16.316;2023-05-10T13:42:23;24.10;88.90
20815;DHT22;10568;48.176;16.316;2023-05-10T13:44:49;23.50;91.20
20815;DHT22;10568;48.176;16.316;2023-05-10T13:47:15;23.30;91.00
20815;DHT22;10568;48.176;16.316;2023-05-10T13:49:41;23.40;92.10
20815;DHT22;10568;48.176;16.316;2023-05-10T13:52:07;23.60;89.30
20815;DHT22;10568;48.176;16.316;2023-05-10T13:54:33;23.70;91.40
20815;DHT22;10568;48.176;16.316;2023-05-10T13:56:59;23.20;87.80
20815;DHT22;10568;48.176;16.316;2023-05-10T13:59:26;23.40;90.60
20815;DHT22;10568;48.176;16.316;2023-05-10T14:01:52;23.60;88.70
20815;DHT22;10568;48.176;16.316;2023-05-10T14:04:17;23.40;91.00
20815;DHT22;10568;48.176;16.316;2023-05-10T14:06:43;23.60;86.00
20815;DHT22;10568;48.176;16.316;2023-05-10T14:09:09;23.80;92.10
20815;DHT22;10568;48.176;16.316;2023-05-10T14:11:35;23.70;90.20
20815;DHT22;10568;48.176;16.316;2023-05-10T14:14:01;23.60;89.80
20815;DHT22;10568;48.176;16.316;2023-05-10T14:16:26;23.00;87.00
20815;DHT22;10568;48.176;16.316;2023-05-10T14:18:52;23.00;87.80
20815;DHT22;10568;48.176;16.316;2023-05-10T14:21:18;22.20;87.30
20815;DHT22;10568;48.176;16.316;2023-05-10T14:23:44;22.30;91.00
20815;DHT22;10568;48.176;16.316;2023-05-10T14:26:10;22.00;85.60
20815;DHT22;10568;48.176;16.316;2023-05-10T14:28:35;21.90;90.80
20815;DHT22;10568;48.176;16.316;2023-05-10T14:31:01;21.70;90.20
20815;DHT22;10568;48.176;16.316;2023-05-10T14:33:27;21.60;90.30
20815;DHT22;10568;48.176;16.316;2023-05-10T14:35:54;21.40;89.90
20815;DHT22;10568;48.176;16.316;2023-05-10T14:38:22;21.20;90.00
20815;DHT22;10568;48.176;16.316;2023-05-10T14:40:47;21.10;90.60
20815;DHT22;10568;48.176;16.316;2023-05-10T14:43:13;21.00;92.90
20815;DHT22;10568;48.176;16.316;2023-05-10T14:45:39;20.70;91.10
20815;DHT22;10568;48.176;16.316;2023-05-10T14:48:05;20.80;92.50
20815;DHT22;10568;48.176;16.316;2023-05-10T14:50:31;20.70;91.10
20815;DHT22;10568;48.176;16.316;2023-05-10T14:52:57;20.60;88.10
20815;DHT22;10568;48.176;16.316;2023-05-10T14:55:24;20.40;90.30
20815;DHT22;10568;48.176;16.316;2023-05-10T14:57:50;20.30;90.10
20815;DHT22;10568;48.176;16.316;2023-05-10T15:00:16;20.00;90.80
20815;DHT22;10568;48.176;16.316;2023-05-10T15:02:44;19.90;90.90
20815;DHT22;10568;48.176;16.316;2023-05-10T15:05:10;19.70;90.10
20815;DHT22;10568;48.176;16.316;2023-05-10T15:07:35;19.60;90.60
20815;DHT22;10568;48.176;16.316;2023-05-10T15:10:02;19.60;91.50
20815;DHT22;10568;48.176;16.316;2023-05-10T15:12:28;19.60;90.70
20815;DHT22;10568;48.176;16.316;2023-05-10T15:14:54;19.70;90.90
20815;DHT22;10568;48.176;16.316;2023-05-10T15:17:19;19.90;91.20
20815;DHT22;10568;48.176;16.316;2023-05-10T15:19:45;20.10;92.00
20815;DHT22;10568;48.176;16.316;2023-05-10T15:22:11;20.20;92.40
20815;DHT22;10568;48.176;16.316;2023-05-10T15:24:37;20.30;92.90
20815;DHT22;10568;48.176;16.316;2023-05-10T15:27:02;20.50;92.60
20815;DHT22;10568;48.176;16.316;2023-05-10T15:29:29;20.70;90.90
20815;DHT22;10568;48.176;16.316;2023-05-10T15:31:55;20.90;91.60
20815;DHT22;10568;48.176;16.316;2023-05-10T15:34:21;20.90;91.20
20815;DHT22;10568;48.176;16.316;2023-05-10T15:36:47;21.00;92.50
20815;DHT22;10568;48.176;16.316;2023-05-10T15:39:13;21.00;88.90
20815;DHT22;10568;48.176;16.316;2023-05-10T15:41:39;20.90;90.60
20815;DHT22;10568;48.176;16.316;2023-05-10T15:47:29;21.10;92.30
20815;DHT22;10568;48.176;16.316;2023-05-10T15:49:55;20.70;91.30
20815;DHT22;10568;48.176;16.316;2023-05-10T15:52:21;20.70;91.40
20815;DHT22;10568;48.176;16.316;2023-05-10T15:54:48;20.50;93.10
20815;DHT22;10568;48.176;16.316;2023-05-10T15:57:14;20.50;91.60